sensor_id;sensor_type;location;lat;lon;timestamp;P1;durP1;ratioP1;P2;durP2;ratioP2
55756;SDS011;41676;44.610;44.078;2023-06-22T00:04:26;9.10;;;3.58;;
55756;SDS011;41676;44.610;44.078;2023-06-22T00:09:27;9.63;;;3.75;;
55756;SDS011;41676;44.610;44.078;2023-06-22T00:14:28;6.53;;;3.50;;
55756;SDS011;41676;44.610;44.078;2023-06-22T00:19:29;8.60;;;3.88;;
55756;SDS011;41676;44.610;44.078;2023-06-22T00:24:29;11.40;;;3.92;;
55756;SDS011;41676;44.610;44.078;2023-06-22T00:29:30;13.85;;;4.10;;
55756;SDS011;41676;44.610;44.078;2023-06-22T00:34:31;18.45;;;4.47;;
55756;SDS011;41676;44.610;44.078;2023-06-22T00:39:32;28.35;;;4.22;;
55756;SDS011;41676;44.610;44.078;2023-06-22T00:44:34;31.10;;;4.35;;
55756;SDS011;41676;44.610;44.078;2023-06-22T00:49:36;38.35;;;5.03;;
55756;SDS011;41676;44.610;44.078;2023-06-22T00:54:37;31.20;;;5.00;;
55756;SDS011;41676;44.610;44.078;2023-06-22T00:59:38;14.45;;;3.90;;
55756;SDS011;41676;44.610;44.078;2023-06-22T01:04:39;16.48;;;3.65;;
55756;SDS011;41676;44.610;44.078;2023-06-22T01:09:44;16.88;;;4.78;;
55756;SDS011;41676;44.610;44.078;2023-06-22T01:14:56;25.42;;;3.53;;
55756;SDS011;41676;44.610;44.078;2023-06-22T01:20:05;11.90;;;3.45;;
55756;SDS011;41676;44.610;44.078;2023-06-22T01:25:23;24.08;;;4.35;;
55756;SDS011;41676;44.610;44.078;2023-06-22T01:30:31;17.00;;;4.23;;
55756;SDS011;41676;44.610;44.078;2023-06-22T01:35:34;27.73;;;4.55;;
55756;SDS011;41676;44.610;44.078;2023-06-22T01:40:35;17.85;;;3.75;;
55756;SDS011;41676;44.610;44.078;2023-06-22T01:45:37;15.98;;;3.90;;
55756;SDS011;41676;44.610;44.078;2023-06-22T01:50:38;19.67;;;4.03;;
55756;SDS011;41676;44.610;44.078;2023-06-22T01:55:40;14.05;;;3.83;;
55756;SDS011;41676;44.610;44.078;2023-06-22T02:00:44;10.32;;;3.70;;
55756;SDS011;41676;44.610;44.078;2023-06-22T02:06:01;22.55;;;4.50;;
55756;SDS011;41676;44.610;44.078;2023-06-22T02:11:06;8.38;;;3.53;;
55756;SDS011;41676;44.610;44.078;2023-06-22T02:16:11;13.32;;;4.30;;
55756;SDS011;41676;44.610;44.078;2023-06-22T02:21:13;14.40;;;3.90;;
55756;SDS011;41676;44.610;44.078;2023-06-22T02:26:17;16.88;;;4.32;;
55756;SDS011;41676;44.610;44.078;2023-06-22T02:31:18;17.52;;;5.45;;
55756;SDS011;41676;44.610;44.078;2023-06-22T02:36:20;21.25;;;4.35;;
55756;SDS011;41676;44.610;44.078;2023-06-22T02:41:22;8.85;;;3.45;;
55756;SDS011;41676;44.610;44.078;2023-06-22T02:46:23;10.43;;;4.20;;
55756;SDS011;41676;44.610;44.078;2023-06-22T02:51:24;22.10;;;4.60;;
55756;SDS011;41676;44.610;44.078;2023-06-22T02:56:25;10.05;;;4.05;;
55756;SDS011;41676;44.610;44.078;2023-06-22T03:01:26;11.15;;;4.88;;
55756;SDS011;41676;44.610;44.078;2023-06-22T03:06:28;12.10;;;4.47;;
55756;SDS011;41676;44.610;44.078;2023-06-22T03:11:29;24.15;;;5.72;;
55756;SDS011;41676;44.610;44.078;2023-06-22T03:16:30;18.60;;;4.47;;
55756;SDS011;41676;44.610;44.078;2023-06-22T03:21:31;12.70;;;5.00;;
55756;SDS011;41676;44.610;44.078;2023-06-22T03:26:32;22.65;;;4.82;;
55756;SDS011;41676;44.610;44.078;2023-06-22T03:31:34;16.15;;;5.22;;
55756;SDS011;41676;44.610;44.078;2023-06-22T03:36:35;12.95;;;5.07;;
55756;SDS011;41676;44.610;44.078;2023-06-22T03:41:36;15.15;;;4.60;;
55756;SDS011;41676;44.610;44.078;2023-06-22T03:46:36;15.50;;;5.22;;
55756;SDS011;41676;44.610;44.078;2023-06-22T03:51:37;13.52;;;5.28;;
55756;SDS011;41676;44.610;44.078;2023-06-22T03:56:39;12.15;;;4.70;;
55756;SDS011;41676;44.610;44.078;2023-06-22T04:01:39;15.43;;;4.25;;
55756;SDS011;41676;44.610;44.078;2023-06-22T04:06:40;8.35;;;4.40;;
55756;SDS011;41676;44.610;44.078;2023-06-22T04:11:41;13.45;;;4.82;;
55756;SDS011;41676;44.610;44.078;2023-06-22T04:16:42;9.88;;;4.47;;
55756;SDS011;41676;44.610;44.078;2023-06-22T04:21:43;7.65;;;4.15;;
55756;SDS011;41676;44.610;44.078;2023-06-22T04:26:44;17.93;;;4.57;;
55756;SDS011;41676;44.610;44.078;2023-06-22T04:31:47;10.98;;;4.32;;
55756;SDS011;41676;44.610;44.078;2023-06-22T04:36:51;9.02;;;4.65;;
55756;SDS011;41676;44.610;44.078;2023-06-22T04:41:52;10.27;;;4.30;;
55756;SDS011;41676;44.610;44.078;2023-06-22T04:46:54;7.22;;;4.38;;
55756;SDS011;41676;44.610;44.078;2023-06-22T04:52:00;10.13;;;4.55;;
55756;SDS011;41676;44.610;44.078;2023-06-22T04:57:02;11.33;;;3.80;;
55756;SDS011;41676;44.610;44.078;2023-06-22T05:02:04;6.82;;;4.03;;
55756;SDS011;41676;44.610;44.078;2023-06-22T05:07:06;8.83;;;4.10;;
55756;SDS011;41676;44.610;44.078;2023-06-22T05:12:07;10.50;;;4.28;;
55756;SDS011;41676;44.610;44.078;2023-06-22T05:17:08;8.77;;;4.07;;
55756;SDS011;41676;44.610;44.078;2023-06-22T05:22:16;5.38;;;4.28;;
55756;SDS011;41676;44.610;44.078;2023-06-22T05:27:17;17.38;;;4.47;;
55756;SDS011;41676;44.610;44.078;2023-06-22T05:32:18;10.38;;;4.38;;
55756;SDS011;41676;44.610;44.078;2023-06-22T05:37:19;24.65;;;4.85;;
55756;SDS011;41676;44.610;44.078;2023-06-22T05:42:19;6.88;;;4.20;;
55756;SDS011;41676;44.610;44.078;2023-06-22T05:47:20;8.82;;;4.13;;
55756;SDS011;41676;44.610;44.078;2023-06-22T05:52:23;12.32;;;3.90;;
55756;SDS011;41676;44.610;44.078;2023-06-22T05:57:23;12.93;;;4.03;;
55756;SDS011;41676;44.610;44.078;2023-06-22T06:02:24;7.80;;;4.00;;
55756;SDS011;41676;44.610;44.078;2023-06-22T06:07:25;6.18;;;3.75;;
55756;SDS011;41676;44.610;44.078;2023-06-22T06:12:26;16.83;;;3.92;;
55756;SDS011;41676;44.610;44.078;2023-06-22T06:17:27;9.15;;;4.15;;
55756;SDS011;41676;44.610;44.078;2023-06-22T06:22:27;8.75;;;4.00;;
55756;SDS011;41676;44.610;44.078;2023-06-22T06:27:28;12.07;;;4.20;;
55756;SDS011;41676;44.610;44.078;2023-06-22T06:32:30;11.00;;;4.38;;
55756;SDS011;41676;44.610;44.078;2023-06-22T06:37:30;9.55;;;4.10;;
55756;SDS011;41676;44.610;44.078;2023-06-22T06:42:31;8.25;;;3.80;;
55756;SDS011;41676;44.610;44.078;2023-06-22T06:47:32;6.70;;;3.90;;
55756;SDS011;41676;44.610;44.078;2023-06-22T06:52:33;5.55;;;3.75;;
55756;SDS011;41676;44.610;44.078;2023-06-22T06:57:34;10.55;;;3.70;;
55756;SDS011;41676;44.610;44.078;2023-06-22T07:02:35;9.38;;;3.65;;
55756;SDS011;41676;44.610;44.078;2023-06-22T07:07:35;5.40;;;3.65;;
55756;SDS011;41676;44.610;44.078;2023-06-22T07:12:36;7.13;;;3.83;;
55756;SDS011;41676;44.610;44.078;2023-06-22T07:17:38;8.75;;;3.33;;
55756;SDS011;41676;44.610;44.078;2023-06-22T07:22:43;7.47;;;3.20;;
55756;SDS011;41676;44.610;44.078;2023-06-22T07:32:46;8.75;;;3.30;;
55756;SDS011;41676;44.610;44.078;2023-06-22T07:37:47;5.85;;;2.88;;
55756;SDS011;41676;44.610;44.078;2023-06-22T07:42:48;11.35;;;3.47;;
55756;SDS011;41676;44.610;44.078;2023-06-22T07:47:50;6.23;;;3.33;;
55756;SDS011;41676;44.610;44.078;2023-06-22T07:52:50;11.65;;;3.67;;
55756;SDS011;41676;44.610;44.078;2023-06-22T07:57:52;11.03;;;3.40;;
55756;SDS011;41676;44.610;44.078;2023-06-22T08:02:53;5.63;;;3.08;;
55756;SDS011;41676;44.610;44.078;2023-06-22T08:07:54;5.32;;;3.10;;
55756;SDS011;41676;44.610;44.078;2023-06-22T08:12:55;12.32;;;4.50;;
55756;SDS011;41676;44.610;44.078;2023-06-22T08:17:56;6.47;;;3.35;;
55756;SDS011;41676;44.610;44.078;2023-06-22T08:22:58;9.50;;;3.08;;
55756;SDS011;41676;44.610;44.078;2023-06-22T08:28:05;7.63;;;3.22;;
55756;SDS011;41676;44.610;44.078;2023-06-22T08:33:07;12.45;;;4.22;;
55756;SDS011;41676;44.610;44.078;2023-06-22T08:38:08;8.10;;;2.90;;
55756;SDS011;41676;44.610;44.078;2023-06-22T08:43:09;4.82;;;2.75;;
55756;SDS011;41676;44.610;44.078;2023-06-22T08:48:09;7.78;;;2.88;;
55756;SDS011;41676;44.610;44.078;2023-06-22T08:53:10;6.20;;;3.17;;
55756;SDS011;41676;44.610;44.078;2023-06-22T08:58:11;14.25;;;3.53;;
55756;SDS011;41676;44.610;44.078;2023-06-22T09:03:14;6.50;;;2.80;;
55756;SDS011;41676;44.610;44.078;2023-06-22T09:08:15;13.77;;;4.03;;
55756;SDS011;41676;44.610;44.078;2023-06-22T09:13:16;10.55;;;3.55;;
55756;SDS011;41676;44.610;44.078;2023-06-22T09:18:17;4.55;;;2.88;;
55756;SDS011;41676;44.610;44.078;2023-06-22T09:23:17;10.20;;;3.30;;
55756;SDS011;41676;44.610;44.078;2023-06-22T09:28:18;5.55;;;3.28;;
55756;SDS011;41676;44.610;44.078;2023-06-22T09:33:19;7.18;;;3.38;;
55756;SDS011;41676;44.610;44.078;2023-06-22T09:38:19;11.50;;;3.47;;
55756;SDS011;41676;44.610;44.078;2023-06-22T09:43:20;11.00;;;3.40;;
55756;SDS011;41676;44.610;44.078;2023-06-22T09:48:21;10.75;;;3.50;;
55756;SDS011;41676;44.610;44.078;2023-06-22T09:53:22;9.93;;;3.60;;
55756;SDS011;41676;44.610;44.078;2023-06-22T09:58:23;14.90;;;3.72;;
55756;SDS011;41676;44.610;44.078;2023-06-22T10:03:24;6.90;;;3.60;;
55756;SDS011;41676;44.610;44.078;2023-06-22T10:08:24;11.15;;;3.85;;
55756;SDS011;41676;44.610;44.078;2023-06-22T10:13:25;15.48;;;3.47;;
55756;SDS011;41676;44.610;44.078;2023-06-22T10:18:26;6.88;;;3.50;;
55756;SDS011;41676;44.610;44.078;2023-06-22T10:23:27;6.85;;;3.25;;
55756;SDS011;41676;44.610;44.078;2023-06-22T10:28:28;9.68;;;3.30;;
55756;SDS011;41676;44.610;44.078;2023-06-22T10:33:28;11.50;;;3.38;;
55756;SDS011;41676;44.610;44.078;2023-06-22T10:38:29;7.72;;;3.78;;
55756;SDS011;41676;44.610;44.078;2023-06-22T10:43:30;5.57;;;3.45;;
55756;SDS011;41676;44.610;44.078;2023-06-22T10:48:31;6.57;;;3.40;;
55756;SDS011;41676;44.610;44.078;2023-06-22T10:53:31;10.68;;;3.90;;
55756;SDS011;41676;44.610;44.078;2023-06-22T10:58:32;5.75;;;3.53;;
55756;SDS011;41676;44.610;44.078;2023-06-22T11:03:33;18.15;;;3.80;;
55756;SDS011;41676;44.610;44.078;2023-06-22T11:08:34;16.02;;;4.05;;
55756;SDS011;41676;44.610;44.078;2023-06-22T11:13:34;10.95;;;3.42;;
55756;SDS011;41676;44.610;44.078;2023-06-22T11:18:35;6.15;;;3.33;;
55756;SDS011;41676;44.610;44.078;2023-06-22T11:23:36;10.88;;;3.63;;
55756;SDS011;41676;44.610;44.078;2023-06-22T11:28:37;8.98;;;3.50;;
55756;SDS011;41676;44.610;44.078;2023-06-22T11:33:37;8.20;;;3.47;;
55756;SDS011;41676;44.610;44.078;2023-06-22T11:38:38;6.45;;;3.45;;
55756;SDS011;41676;44.610;44.078;2023-06-22T11:43:40;7.10;;;3.53;;
55756;SDS011;41676;44.610;44.078;2023-06-22T11:48:41;12.98;;;3.75;;
55756;SDS011;41676;44.610;44.078;2023-06-22T11:53:41;10.15;;;3.30;;
55756;SDS011;41676;44.610;44.078;2023-06-22T11:58:43;9.38;;;3.78;;
55756;SDS011;41676;44.610;44.078;2023-06-22T12:03:43;8.00;;;3.17;;
55756;SDS011;41676;44.610;44.078;2023-06-22T12:08:44;29.55;;;3.92;;
55756;SDS011;41676;44.610;44.078;2023-06-22T12:13:45;25.55;;;4.28;;
55756;SDS011;41676;44.610;44.078;2023-06-22T12:18:46;9.40;;;2.90;;
55756;SDS011;41676;44.610;44.078;2023-06-22T12:23:47;6.53;;;2.90;;
55756;SDS011;41676;44.610;44.078;2023-06-22T12:28:47;9.80;;;2.50;;
55756;SDS011;41676;44.610;44.078;2023-06-22T12:33:48;6.40;;;2.65;;
55756;SDS011;41676;44.610;44.078;2023-06-22T12:38:49;19.52;;;3.13;;
55756;SDS011;41676;44.610;44.078;2023-06-22T12:43:50;7.18;;;2.67;;
55756;SDS011;41676;44.610;44.078;2023-06-22T12:48:50;7.47;;;2.60;;
55756;SDS011;41676;44.610;44.078;2023-06-22T12:53:51;11.48;;;2.60;;
55756;SDS011;41676;44.610;44.078;2023-06-22T12:58:52;13.98;;;2.70;;
55756;SDS011;41676;44.610;44.078;2023-06-22T13:03:53;13.63;;;2.40;;
55756;SDS011;41676;44.610;44.078;2023-06-22T13:08:54;8.02;;;2.60;;
55756;SDS011;41676;44.610;44.078;2023-06-22T13:13:55;7.35;;;2.67;;
55756;SDS011;41676;44.610;44.078;2023-06-22T13:18:55;15.80;;;2.55;;
55756;SDS011;41676;44.610;44.078;2023-06-22T13:23:56;12.45;;;2.70;;
55756;SDS011;41676;44.610;44.078;2023-06-22T13:28:57;7.22;;;2.55;;
55756;SDS011;41676;44.610;44.078;2023-06-22T13:33:57;10.52;;;2.60;;
55756;SDS011;41676;44.610;44.078;2023-06-22T13:38:58;6.43;;;2.70;;
55756;SDS011;41676;44.610;44.078;2023-06-22T13:43:59;5.35;;;2.45;;
55756;SDS011;41676;44.610;44.078;2023-06-22T13:49:00;11.07;;;2.55;;
55756;SDS011;41676;44.610;44.078;2023-06-22T13:54:02;11.90;;;2.40;;
55756;SDS011;41676;44.610;44.078;2023-06-22T13:59:03;5.78;;;2.50;;
55756;SDS011;41676;44.610;44.078;2023-06-22T14:04:04;15.00;;;2.90;;
55756;SDS011;41676;44.610;44.078;2023-06-22T14:09:04;8.60;;;2.80;;
55756;SDS011;41676;44.610;44.078;2023-06-22T14:14:05;9.82;;;2.90;;
55756;SDS011;41676;44.610;44.078;2023-06-22T14:19:06;13.85;;;4.20;;
55756;SDS011;41676;44.610;44.078;2023-06-22T14:24:07;5.13;;;2.80;;
55756;SDS011;41676;44.610;44.078;2023-06-22T14:29:07;8.23;;;3.03;;
55756;SDS011;41676;44.610;44.078;2023-06-22T14:34:08;7.35;;;2.45;;
55756;SDS011;41676;44.610;44.078;2023-06-22T14:39:09;11.13;;;2.85;;
55756;SDS011;41676;44.610;44.078;2023-06-22T14:44:10;11.38;;;2.60;;
55756;SDS011;41676;44.610;44.078;2023-06-22T14:49:11;22.13;;;3.13;;
55756;SDS011;41676;44.610;44.078;2023-06-22T14:54:12;37.08;;;4.90;;
55756;SDS011;41676;44.610;44.078;2023-06-22T14:59:12;10.48;;;2.60;;
55756;SDS011;41676;44.610;44.078;2023-06-22T15:04:13;93.45;;;8.93;;
55756;SDS011;41676;44.610;44.078;2023-06-22T15:09:14;9.65;;;2.70;;
55756;SDS011;41676;44.610;44.078;2023-06-22T15:14:15;140.93;;;9.18;;
55756;SDS011;41676;44.610;44.078;2023-06-22T15:19:16;21.50;;;3.10;;
55756;SDS011;41676;44.610;44.078;2023-06-22T15:24:16;17.60;;;3.00;;
55756;SDS011;41676;44.610;44.078;2023-06-22T15:29:17;12.25;;;2.83;;
55756;SDS011;41676;44.610;44.078;2023-06-22T15:34:18;8.23;;;2.35;;
55756;SDS011;41676;44.610;44.078;2023-06-22T15:39:19;8.75;;;2.38;;
55756;SDS011;41676;44.610;44.078;2023-06-22T15:44:20;20.08;;;3.42;;
55756;SDS011;41676;44.610;44.078;2023-06-22T15:49:22;55.65;;;4.80;;
55756;SDS011;41676;44.610;44.078;2023-06-22T15:54:23;49.63;;;4.68;;
55756;SDS011;41676;44.610;44.078;2023-06-22T15:59:24;9.65;;;2.17;;
55756;SDS011;41676;44.610;44.078;2023-06-22T16:04:25;16.17;;;3.10;;
55756;SDS011;41676;44.610;44.078;2023-06-22T16:09:26;11.65;;;3.15;;
55756;SDS011;41676;44.610;44.078;2023-06-22T16:14:27;9.15;;;3.42;;
55756;SDS011;41676;44.610;44.078;2023-06-22T16:19:28;17.40;;;3.65;;
55756;SDS011;41676;44.610;44.078;2023-06-22T16:24:28;10.73;;;3.17;;
55756;SDS011;41676;44.610;44.078;2023-06-22T16:29:29;16.80;;;3.45;;
55756;SDS011;41676;44.610;44.078;2023-06-22T16:34:30;18.17;;;3.20;;
55756;SDS011;41676;44.610;44.078;2023-06-22T16:39:31;13.95;;;3.65;;
55756;SDS011;41676;44.610;44.078;2023-06-22T16:44:32;11.95;;;3.72;;
55756;SDS011;41676;44.610;44.078;2023-06-22T16:49:32;27.90;;;4.22;;
55756;SDS011;41676;44.610;44.078;2023-06-22T16:54:35;19.50;;;4.17;;
55756;SDS011;41676;44.610;44.078;2023-06-22T16:59:36;13.23;;;2.95;;
55756;SDS011;41676;44.610;44.078;2023-06-22T17:04:37;8.38;;;2.97;;
55756;SDS011;41676;44.610;44.078;2023-06-22T17:09:40;11.27;;;3.30;;
55756;SDS011;41676;44.610;44.078;2023-06-22T17:14:45;13.27;;;3.72;;
55756;SDS011;41676;44.610;44.078;2023-06-22T17:19:46;22.35;;;4.63;;
55756;SDS011;41676;44.610;44.078;2023-06-22T17:24:47;20.08;;;6.60;;
55756;SDS011;41676;44.610;44.078;2023-06-22T17:29:49;29.95;;;8.88;;
55756;SDS011;41676;44.610;44.078;2023-06-22T17:35:03;17.40;;;7.53;;
55756;SDS011;41676;44.610;44.078;2023-06-22T17:40:07;24.33;;;7.60;;
55756;SDS011;41676;44.610;44.078;2023-06-22T17:45:15;23.20;;;6.55;;
55756;SDS011;41676;44.610;44.078;2023-06-22T17:50:24;26.60;;;6.20;;
55756;SDS011;41676;44.610;44.078;2023-06-22T17:55:25;17.48;;;6.35;;
55756;SDS011;41676;44.610;44.078;2023-06-22T18:00:27;32.13;;;5.32;;
55756;SDS011;41676;44.610;44.078;2023-06-22T18:05:29;19.13;;;4.20;;
55756;SDS011;41676;44.610;44.078;2023-06-22T18:10:34;9.52;;;3.85;;
55756;SDS011;41676;44.610;44.078;2023-06-22T18:15:36;27.30;;;4.63;;
55756;SDS011;41676;44.610;44.078;2023-06-22T18:20:38;32.42;;;4.80;;
55756;SDS011;41676;44.610;44.078;2023-06-22T18:25:40;38.20;;;10.52;;
55756;SDS011;41676;44.610;44.078;2023-06-22T18:30:45;40.95;;;12.68;;
55756;SDS011;41676;44.610;44.078;2023-06-22T18:35:47;26.70;;;7.78;;
55756;SDS011;41676;44.610;44.078;2023-06-22T18:40:51;31.08;;;5.15;;
55756;SDS011;41676;44.610;44.078;2023-06-22T18:45:52;29.75;;;5.43;;
55756;SDS011;41676;44.610;44.078;2023-06-22T18:50:53;20.48;;;4.53;;
55756;SDS011;41676;44.610;44.078;2023-06-22T18:56:12;23.52;;;4.72;;
55756;SDS011;41676;44.610;44.078;2023-06-22T19:01:14;21.85;;;4.70;;
55756;SDS011;41676;44.610;44.078;2023-06-22T19:11:51;18.35;;;4.22;;
55756;SDS011;41676;44.610;44.078;2023-06-22T19:17:22;30.75;;;4.38;;
55756;SDS011;41676;44.610;44.078;2023-06-22T19:27:56;21.15;;;4.90;;
55756;SDS011;41676;44.610;44.078;2023-06-22T19:32:58;15.70;;;3.78;;
55756;SDS011;41676;44.610;44.078;2023-06-22T19:37:59;16.88;;;4.28;;
55756;SDS011;41676;44.610;44.078;2023-06-22T19:43:00;15.77;;;3.92;;
55756;SDS011;41676;44.610;44.078;2023-06-22T19:48:01;20.55;;;4.07;;
55756;SDS011;41676;44.610;44.078;2023-06-22T19:53:02;17.05;;;3.97;;
55756;SDS011;41676;44.610;44.078;2023-06-22T19:58:03;30.48;;;4.70;;
55756;SDS011;41676;44.610;44.078;2023-06-22T20:03:08;20.08;;;4.35;;
55756;SDS011;41676;44.610;44.078;2023-06-22T20:08:11;16.60;;;4.05;;
55756;SDS011;41676;44.610;44.078;2023-06-22T20:13:14;25.50;;;3.90;;
55756;SDS011;41676;44.610;44.078;2023-06-22T20:18:16;19.10;;;4.35;;
55756;SDS011;41676;44.610;44.078;2023-06-22T20:23:18;21.45;;;3.70;;
55756;SDS011;41676;44.610;44.078;2023-06-22T20:28:21;13.52;;;3.65;;
55756;SDS011;41676;44.610;44.078;2023-06-22T20:33:26;20.63;;;3.20;;
55756;SDS011;41676;44.610;44.078;2023-06-22T20:38:27;18.92;;;2.78;;
55756;SDS011;41676;44.610;44.078;2023-06-22T20:43:28;16.25;;;3.08;;
55756;SDS011;41676;44.610;44.078;2023-06-22T20:48:29;9.90;;;2.30;;
55756;SDS011;41676;44.610;44.078;2023-06-22T20:53:31;16.80;;;2.90;;
55756;SDS011;41676;44.610;44.078;2023-06-22T20:58:32;15.73;;;2.30;;
55756;SDS011;41676;44.610;44.078;2023-06-22T21:03:33;12.25;;;2.50;;
55756;SDS011;41676;44.610;44.078;2023-06-22T21:08:34;8.88;;;2.25;;
55756;SDS011;41676;44.610;44.078;2023-06-22T21:13:35;9.98;;;2.35;;
55756;SDS011;41676;44.610;44.078;2023-06-22T21:18:37;6.03;;;2.17;;
55756;SDS011;41676;44.610;44.078;2023-06-22T21:23:38;7.80;;;3.20;;
55756;SDS011;41676;44.610;44.078;2023-06-22T21:28:38;5.07;;;1.73;;
55756;SDS011;41676;44.610;44.078;2023-06-22T21:33:39;4.10;;;1.92;;
55756;SDS011;41676;44.610;44.078;2023-06-22T21:38:40;8.52;;;1.98;;
55756;SDS011;41676;44.610;44.078;2023-06-22T21:43:40;8.05;;;2.13;;
55756;SDS011;41676;44.610;44.078;2023-06-22T21:48:41;5.78;;;2.00;;
55756;SDS011;41676;44.610;44.078;2023-06-22T21:53:42;7.32;;;1.98;;
55756;SDS011;41676;44.610;44.078;2023-06-22T21:58:43;7.10;;;2.15;;
55756;SDS011;41676;44.610;44.078;2023-06-22T22:03:44;8.93;;;1.88;;
55756;SDS011;41676;44.610;44.078;2023-06-22T22:08:44;8.05;;;2.30;;
55756;SDS011;41676;44.610;44.078;2023-06-22T22:13:45;7.50;;;1.88;;
55756;SDS011;41676;44.610;44.078;2023-06-22T22:18:46;7.85;;;2.40;;
55756;SDS011;41676;44.610;44.078;2023-06-22T22:23:49;8.23;;;2.30;;
55756;SDS011;41676;44.610;44.078;2023-06-22T22:28:50;13.88;;;2.47;;
55756;SDS011;41676;44.610;44.078;2023-06-22T22:33:51;10.73;;;2.17;;
55756;SDS011;41676;44.610;44.078;2023-06-22T22:38:52;8.55;;;2.28;;
55756;SDS011;41676;44.610;44.078;2023-06-22T22:43:53;5.55;;;1.95;;
55756;SDS011;41676;44.610;44.078;2023-06-22T22:48:55;5.05;;;1.80;;
55756;SDS011;41676;44.610;44.078;2023-06-22T22:53:56;26.88;;;2.67;;
55756;SDS011;41676;44.610;44.078;2023-06-22T22:58:57;8.30;;;1.90;;
55756;SDS011;41676;44.610;44.078;2023-06-22T23:03:58;11.35;;;2.00;;
55756;SDS011;41676;44.610;44.078;2023-06-22T23:08:58;5.05;;;1.73;;
55756;SDS011;41676;44.610;44.078;2023-06-22T23:13:59;5.32;;;2.08;;
55756;SDS011;41676;44.610;44.078;2023-06-22T23:19:00;7.57;;;2.10;;
55756;SDS011;41676;44.610;44.078;2023-06-22T23:24:02;9.48;;;2.28;;
55756;SDS011;41676;44.610;44.078;2023-06-22T23:29:03;4.22;;;1.80;;
55756;SDS011;41676;44.610;44.078;2023-06-22T23:34:05;4.68;;;1.90;;
55756;SDS011;41676;44.610;44.078;2023-06-22T23:39:05;7.85;;;2.00;;
55756;SDS011;41676;44.610;44.078;2023-06-22T23:44:06;3.45;;;2.10;;
55756;SDS011;41676;44.610;44.078;2023-06-22T23:49:07;8.95;;;2.22;;
55756;SDS011;41676;44.610;44.078;2023-06-22T23:54:08;6.68;;;2.40;;
55756;SDS011;41676;44.610;44.078;2023-06-22T23:59:08;4.25;;;1.98;;
